sensor_id;sensor_type;location;lat;lon;timestamp;temperature;humidity
71297;SHT31;59082;50.658;4.608;2023-03-21T06:11:03;9.69;99.99
71297;SHT31;59082;50.658;4.608;2023-03-21T06:13:29;9.67;99.99
71297;SHT31;59082;50.658;4.608;2023-03-21T06:15:56;9.67;99.99
71297;SHT31;59082;50.658;4.608;2023-03-21T06:18:22;9.73;99.99
71297;SHT31;59082;50.658;4.608;2023-03-21T06:20:47;9.70;99.99
71297;SHT31;59082;50.658;4.608;2023-03-21T06:23:13;9.69;99.99
71297;SHT31;59082;50.658;4.608;2023-03-21T06:25:40;9.67;99.99
71297;SHT31;59082;50.658;4.608;2023-03-21T06:28:06;9.69;99.99
71297;SHT31;59082;50.658;4.608;2023-03-21T06:30:32;9.67;99.99
71297;SHT31;59082;50.658;4.608;2023-03-21T06:32:57;9.66;99.99
71297;SHT31;59082;50.658;4.608;2023-03-21T06:35:23;9.60;99.99
71297;SHT31;59082;50.658;4.608;2023-03-21T06:37:48;9.57;99.99
71297;SHT31;59082;50.658;4.608;2023-03-21T06:40:15;9.49;99.99
71297;SHT31;59082;50.658;4.608;2023-03-21T06:42:41;9.46;99.99
71297;SHT31;59082;50.658;4.608;2023-03-21T06:45:07;9.40;99.99
71297;SHT31;59082;50.658;4.608;2023-03-21T06:47:32;9.22;99.99
71297;SHT31;59082;50.658;4.608;2023-03-21T06:49:58;9.04;99.99
71297;SHT31;59082;50.658;4.608;2023-03-21T06:52:23;9.01;99.99
71297;SHT31;59082;50.658;4.608;2023-03-21T06:54:49;8.96;99.99
71297;SHT31;59082;50.658;4.608;2023-03-21T06:57:15;8.73;99.99
71297;SHT31;59082;50.658;4.608;2023-03-21T06:59:44;8.77;99.99
71297;SHT31;59082;50.658;4.608;2023-03-21T07:02:11;8.84;99.99
71297;SHT31;59082;50.658;4.608;2023-03-21T07:04:42;8.83;99.99
71297;SHT31;59082;50.658;4.608;2023-03-21T07:07:17;8.88;99.99
71297;SHT31;59082;50.658;4.608;2023-03-21T07:09:42;8.92;99.99
71297;SHT31;59082;50.658;4.608;2023-03-21T07:12:09;8.98;99.99
71297;SHT31;59082;50.658;4.608;2023-03-21T07:14:35;9.00;99.99
71297;SHT31;59082;50.658;4.608;2023-03-21T07:17:01;9.05;99.99
71297;SHT31;59082;50.658;4.608;2023-03-21T07:19:26;9.11;99.99
71297;SHT31;59082;50.658;4.608;2023-03-21T07:21:52;9.22;99.99
71297;SHT31;59082;50.658;4.608;2023-03-21T07:24:17;9.32;99.99
71297;SHT31;59082;50.658;4.608;2023-03-21T07:26:43;9.40;99.99
71297;SHT31;59082;50.658;4.608;2023-03-21T07:29:08;9.49;99.99
71297;SHT31;59082;50.658;4.608;2023-03-21T07:31:34;9.90;99.99
71297;SHT31;59082;50.658;4.608;2023-03-21T07:34:00;10.01;99.99
71297;SHT31;59082;50.658;4.608;2023-03-21T07:36:26;10.21;99.99
71297;SHT31;59082;50.658;4.608;2023-03-21T07:38:52;10.27;99.99
71297;SHT31;59082;50.658;4.608;2023-03-21T07:41:17;10.30;99.99
71297;SHT31;59082;50.658;4.608;2023-03-21T07:43:43;10.59;99.99
71297;SHT31;59082;50.658;4.608;2023-03-21T07:46:09;10.69;99.99
71297;SHT31;59082;50.658;4.608;2023-03-21T07:48:35;10.80;99.99
71297;SHT31;59082;50.658;4.608;2023-03-21T07:51:01;11.00;99.99
71297;SHT31;59082;50.658;4.608;2023-03-21T07:53:27;10.96;99.99
71297;SHT31;59082;50.658;4.608;2023-03-21T07:55:54;10.96;99.99
71297;SHT31;59082;50.658;4.608;2023-03-21T07:58:25;11.16;99.99
71297;SHT31;59082;50.658;4.608;2023-03-21T08:00:51;11.30;99.99
71297;SHT31;59082;50.658;4.608;2023-03-21T08:03:17;11.31;99.99
71297;SHT31;59082;50.658;4.608;2023-03-21T08:05:43;11.31;99.99
71297;SHT31;59082;50.658;4.608;2023-03-21T08:08:09;11.50;99.99
71297;SHT31;59082;50.658;4.608;2023-03-21T08:10:35;11.69;99.99
71297;SHT31;59082;50.658;4.608;2023-03-21T08:13:01;11.30;99.99
71297;SHT31;59082;50.658;4.608;2023-03-21T08:15:27;11.37;99.99
71297;SHT31;59082;50.658;4.608;2023-03-21T08:17:52;11.14;99.99
71297;SHT31;59082;50.658;4.608;2023-03-21T08:20:20;11.08;99.99
71297;SHT31;59082;50.658;4.608;2023-03-21T08:22:47;10.80;99.99
71297;SHT31;59082;50.658;4.608;2023-03-21T08:25:14;10.88;99.99
71297;SHT31;59082;50.658;4.608;2023-03-21T08:27:41;10.63;99.99
71297;SHT31;59082;50.658;4.608;2023-03-21T08:30:08;10.76;99.99
71297;SHT31;59082;50.658;4.608;2023-03-21T08:32:34;10.81;99.99
71297;SHT31;59082;50.658;4.608;2023-03-21T08:35:04;10.84;99.99
71297;SHT31;59082;50.658;4.608;2023-03-21T08:37:31;11.01;99.99
71297;SHT31;59082;50.658;4.608;2023-03-21T08:39:57;11.08;99.99
71297;SHT31;59082;50.658;4.608;2023-03-21T08:42:22;11.03;99.99
71297;SHT31;59082;50.658;4.608;2023-03-21T08:44:48;11.00;99.99
71297;SHT31;59082;50.658;4.608;2023-03-21T08:47:14;11.07;99.99
71297;SHT31;59082;50.658;4.608;2023-03-21T08:49:40;11.07;99.99
71297;SHT31;59082;50.658;4.608;2023-03-21T08:52:06;11.03;99.99
71297;SHT31;59082;50.658;4.608;2023-03-21T08:54:32;11.01;99.99
71297;SHT31;59082;50.658;4.608;2023-03-21T08:56:58;10.96;99.99
71297;SHT31;59082;50.658;4.608;2023-03-21T08:59:23;10.90;99.63
71297;SHT31;59082;50.658;4.608;2023-03-21T09:01:49;10.93;99.99
71297;SHT31;59082;50.658;4.608;2023-03-21T09:04:15;10.92;99.36
71297;SHT31;59082;50.658;4.608;2023-03-21T09:06:43;11.08;99.99
71297;SHT31;59082;50.658;4.608;2023-03-21T09:09:13;11.14;99.29
71297;SHT31;59082;50.658;4.608;2023-03-21T09:11:38;11.14;98.66
71297;SHT31;59082;50.658;4.608;2023-03-21T09:14:04;11.07;98.73
71297;SHT31;59082;50.658;4.608;2023-03-21T09:16:30;11.24;97.62
71297;SHT31;59082;50.658;4.608;2023-03-21T09:18:55;11.42;97.35
71297;SHT31;59082;50.658;4.608;2023-03-21T09:21:24;11.55;97.00
71297;SHT31;59082;50.658;4.608;2023-03-21T09:23:52;11.72;97.05
71297;SHT31;59082;50.658;4.608;2023-03-21T09:26:24;12.06;95.89
71297;SHT31;59082;50.658;4.608;2023-03-21T09:28:50;12.17;95.41
71297;SHT31;59082;50.658;4.608;2023-03-21T09:31:16;12.67;95.40
71297;SHT31;59082;50.658;4.608;2023-03-21T09:33:45;12.98;93.71
71297;SHT31;59082;50.658;4.608;2023-03-21T09:36:12;12.57;93.29
71297;SHT31;59082;50.658;4.608;2023-03-21T09:38:42;12.75;95.06
71297;SHT31;59082;50.658;4.608;2023-03-21T09:47:19;12.48;94.43
71297;SHT31;59082;50.658;4.608;2023-03-21T09:49:53;12.57;93.95
71297;SHT31;59082;50.658;4.608;2023-03-21T09:52:26;12.98;93.97
71297;SHT31;59082;50.658;4.608;2023-03-21T09:54:54;13.43;92.45
71297;SHT31;59082;50.658;4.608;2023-03-21T09:57:28;14.05;91.15
71297;SHT31;59082;50.658;4.608;2023-03-21T09:59:58;14.81;90.11
71297;SHT31;59082;50.658;4.608;2023-03-21T10:02:37;15.02;87.92
71297;SHT31;59082;50.658;4.608;2023-03-21T10:05:30;14.88;87.17
71297;SHT31;59082;50.658;4.608;2023-03-21T10:08:12;15.25;89.30
71297;SHT31;59082;50.658;4.608;2023-03-21T10:10:50;14.80;87.98
71297;SHT31;59082;50.658;4.608;2023-03-21T10:13:21;14.57;87.52
71297;SHT31;59082;50.658;4.608;2023-03-21T10:15:49;14.53;86.99
71297;SHT31;59082;50.658;4.608;2023-03-21T10:18:24;14.18;87.81
71297;SHT31;59082;50.658;4.608;2023-03-21T10:20:51;14.23;88.01
71297;SHT31;59082;50.658;4.608;2023-03-21T10:23:19;14.37;90.31
71297;SHT31;59082;50.658;4.608;2023-03-21T10:25:49;13.98;87.75
71297;SHT31;59082;50.658;4.608;2023-03-21T10:28:18;14.18;89.47
71297;SHT31;59082;50.658;4.608;2023-03-21T10:30:50;13.89;88.33
71297;SHT31;59082;50.658;4.608;2023-03-21T10:33:29;14.19;87.18
71297;SHT31;59082;50.658;4.608;2023-03-21T10:36:02;15.11;87.19
71297;SHT31;59082;50.658;4.608;2023-03-21T10:38:29;14.74;85.67
71297;SHT31;59082;50.658;4.608;2023-03-21T10:40:55;15.01;84.35
71297;SHT31;59082;50.658;4.608;2023-03-21T10:46:04;15.87;82.10
71297;SHT31;59082;50.658;4.608;2023-03-21T10:48:34;16.46;81.33
71297;SHT31;59082;50.658;4.608;2023-03-21T10:51:00;18.23;76.90
71297;SHT31;59082;50.658;4.608;2023-03-21T10:53:32;18.89;75.85
71297;SHT31;59082;50.658;4.608;2023-03-21T10:56:00;17.69;76.23
71297;SHT31;59082;50.658;4.608;2023-03-21T10:58:28;18.23;77.81
71297;SHT31;59082;50.658;4.608;2023-03-21T11:01:02;19.79;73.97
71297;SHT31;59082;50.658;4.608;2023-03-21T11:03:38;21.57;70.86
71297;SHT31;59082;50.658;4.608;2023-03-21T11:08:44;26.16;61.79
71297;SHT31;59082;50.658;4.608;2023-03-21T11:11:24;27.07;60.20
71297;SHT31;59082;50.658;4.608;2023-03-21T11:14:00;28.20;56.64
71297;SHT31;59082;50.658;4.608;2023-03-21T11:16:31;28.45;58.42
71297;SHT31;59082;50.658;4.608;2023-03-21T11:19:10;24.47;62.49
71297;SHT31;59082;50.658;4.608;2023-03-21T11:21:37;24.40;63.54
71297;SHT31;59082;50.658;4.608;2023-03-21T11:24:04;26.61;61.07
71297;SHT31;59082;50.658;4.608;2023-03-21T11:26:36;25.12;59.21
71297;SHT31;59082;50.658;4.608;2023-03-21T11:29:28;28.73;57.61
71297;SHT31;59082;50.658;4.608;2023-03-21T11:31:57;25.80;59.24
71297;SHT31;59082;50.658;4.608;2023-03-21T11:34:32;28.99;55.22
71297;SHT31;59082;50.658;4.608;2023-03-21T11:37:00;27.19;54.21
71297;SHT31;59082;50.658;4.608;2023-03-21T11:39:29;23.49;62.87
71297;SHT31;59082;50.658;4.608;2023-03-21T11:41:55;28.29;58.02
71297;SHT31;59082;50.658;4.608;2023-03-21T11:44:32;28.55;53.95
71297;SHT31;59082;50.658;4.608;2023-03-21T11:46:59;22.76;63.26
71297;SHT31;59082;50.658;4.608;2023-03-21T11:49:25;21.96;64.83
71297;SHT31;59082;50.658;4.608;2023-03-21T11:54:55;30.12;54.35
71297;SHT31;59082;50.658;4.608;2023-03-21T11:57:46;32.14;51.28
71297;SHT31;59082;50.658;4.608;2023-03-21T12:00:20;32.72;51.95
71297;SHT31;59082;50.658;4.608;2023-03-21T12:05:36;37.75;46.25
71297;SHT31;59082;50.658;4.608;2023-03-21T12:22:15;19.40;69.20
71297;SHT31;59082;50.658;4.608;2023-03-21T12:24:56;19.06;70.35
71297;SHT31;59082;50.658;4.608;2023-03-21T12:30:42;18.81;70.98
71297;SHT31;59082;50.658;4.608;2023-03-21T12:36:57;19.53;70.44
71297;SHT31;59082;50.658;4.608;2023-03-21T12:41:46;18.49;72.69
71297;SHT31;59082;50.658;4.608;2023-03-21T12:44:16;18.17;73.25
71297;SHT31;59082;50.658;4.608;2023-03-21T12:46:53;21.98;66.71
71297;SHT31;59082;50.658;4.608;2023-03-21T12:51:57;19.12;70.67
71297;SHT31;59082;50.658;4.608;2023-03-21T12:54:31;21.40;68.78
71297;SHT31;59082;50.658;4.608;2023-03-21T12:57:20;21.11;68.15
71297;SHT31;59082;50.658;4.608;2023-03-21T12:59:59;21.04;68.72
71297;SHT31;59082;50.658;4.608;2023-03-21T13:07:49;20.09;70.33
71297;SHT31;59082;50.658;4.608;2023-03-21T13:10:20;19.28;71.64
71297;SHT31;59082;50.658;4.608;2023-03-21T13:21:00;19.51;71.06
71297;SHT31;59082;50.658;4.608;2023-03-21T13:23:36;19.91;71.04
71297;SHT31;59082;50.658;4.608;2023-03-21T13:26:03;19.65;71.43
71297;SHT31;59082;50.658;4.608;2023-03-21T13:28:38;20.06;70.67
71297;SHT31;59082;50.658;4.608;2023-03-21T13:31:24;20.54;69.50
71297;SHT31;59082;50.658;4.608;2023-03-21T13:33:52;21.90;68.54
71297;SHT31;59082;50.658;4.608;2023-03-21T13:36:24;22.04;67.71
71297;SHT31;59082;50.658;4.608;2023-03-21T13:38:53;24.45;64.66
71297;SHT31;59082;50.658;4.608;2023-03-21T13:41:41;22.76;65.20
71297;SHT31;59082;50.658;4.608;2023-03-21T13:44:21;21.13;67.94
71297;SHT31;59082;50.658;4.608;2023-03-21T13:47:02;20.32;70.58
71297;SHT31;59082;50.658;4.608;2023-03-21T13:49:35;19.50;71.54
71297;SHT31;59082;50.658;4.608;2023-03-21T13:52:25;19.26;72.66
71297;SHT31;59082;50.658;4.608;2023-03-21T13:54:55;18.93;73.83
71297;SHT31;59082;50.658;4.608;2023-03-21T13:57:36;19.12;73.37
71297;SHT31;59082;50.658;4.608;2023-03-21T14:00:20;18.69;73.97
71297;SHT31;59082;50.658;4.608;2023-03-21T14:02:53;18.40;75.03
71297;SHT31;59082;50.658;4.608;2023-03-21T14:05:21;18.28;74.79
71297;SHT31;59082;50.658;4.608;2023-03-21T14:07:52;18.01;75.55
71297;SHT31;59082;50.658;4.608;2023-03-21T14:10:44;17.62;76.11
71297;SHT31;59082;50.658;4.608;2023-03-21T14:13:11;17.42;77.11
71297;SHT31;59082;50.658;4.608;2023-03-21T14:15:44;17.03;77.42
71297;SHT31;59082;50.658;4.608;2023-03-21T14:18:17;17.73;77.07
71297;SHT31;59082;50.658;4.608;2023-03-21T14:20:43;17.96;76.02
71297;SHT31;59082;50.658;4.608;2023-03-21T14:23:14;17.78;76.68
71297;SHT31;59082;50.658;4.608;2023-03-21T14:25:40;18.36;76.73
71297;SHT31;59082;50.658;4.608;2023-03-21T14:28:31;19.07;75.44
71297;SHT31;59082;50.658;4.608;2023-03-21T14:30:59;19.33;74.72
71297;SHT31;59082;50.658;4.608;2023-03-21T14:33:38;19.68;73.74
71297;SHT31;59082;50.658;4.608;2023-03-21T14:36:09;18.92;74.66
71297;SHT31;59082;50.658;4.608;2023-03-21T14:38:39;17.94;76.62
71297;SHT31;59082;50.658;4.608;2023-03-21T14:41:20;16.88;78.52
71297;SHT31;59082;50.658;4.608;2023-03-21T14:44:40;16.59;79.94
71297;SHT31;59082;50.658;4.608;2023-03-21T14:47:06;16.24;81.23
71297;SHT31;59082;50.658;4.608;2023-03-21T14:49:36;15.71;82.18
71297;SHT31;59082;50.658;4.608;2023-03-21T14:52:05;15.45;83.07
71297;SHT31;59082;50.658;4.608;2023-03-21T14:54:32;15.18;83.62
71297;SHT31;59082;50.658;4.608;2023-03-21T14:57:00;15.16;84.49
71297;SHT31;59082;50.658;4.608;2023-03-21T14:59:33;15.02;84.65
71297;SHT31;59082;50.658;4.608;2023-03-21T15:02:24;14.84;85.60
71297;SHT31;59082;50.658;4.608;2023-03-21T15:04:51;14.71;86.30
71297;SHT31;59082;50.658;4.608;2023-03-21T15:07:29;14.74;86.43
71297;SHT31;59082;50.658;4.608;2023-03-21T15:10:01;14.70;86.50
71297;SHT31;59082;50.658;4.608;2023-03-21T15:12:29;14.60;87.57
71297;SHT31;59082;50.658;4.608;2023-03-21T15:14:55;14.47;87.74
71297;SHT31;59082;50.658;4.608;2023-03-21T15:17:22;14.55;88.00
71297;SHT31;59082;50.658;4.608;2023-03-21T15:19:49;14.63;88.44
71297;SHT31;59082;50.658;4.608;2023-03-21T15:22:32;14.97;87.78
71297;SHT31;59082;50.658;4.608;2023-03-21T15:25:05;15.04;88.36
71297;SHT31;59082;50.658;4.608;2023-03-21T15:27:34;15.04;88.79
71297;SHT31;59082;50.658;4.608;2023-03-21T15:30:02;14.59;89.54
71297;SHT31;59082;50.658;4.608;2023-03-21T15:32:28;14.53;90.21
71297;SHT31;59082;50.658;4.608;2023-03-21T15:34:55;14.60;90.50
71297;SHT31;59082;50.658;4.608;2023-03-21T15:37:33;14.67;90.10
71297;SHT31;59082;50.658;4.608;2023-03-21T15:40:28;14.51;90.55
71297;SHT31;59082;50.658;4.608;2023-03-21T15:43:16;14.37;91.32
71297;SHT31;59082;50.658;4.608;2023-03-21T15:45:47;14.22;92.03
71297;SHT31;59082;50.658;4.608;2023-03-21T15:48:14;14.08;92.37
71297;SHT31;59082;50.658;4.608;2023-03-21T15:51:02;14.02;92.80
71297;SHT31;59082;50.658;4.608;2023-03-21T15:53:32;14.15;92.79
71297;SHT31;59082;50.658;4.608;2023-03-21T15:55:59;14.01;92.72
71297;SHT31;59082;50.658;4.608;2023-03-21T15:58:51;13.86;93.77
71297;SHT31;59082;50.658;4.608;2023-03-21T16:01:20;13.73;94.47
71297;SHT31;59082;50.658;4.608;2023-03-21T16:03:48;13.74;94.17
71297;SHT31;59082;50.658;4.608;2023-03-21T16:06:31;13.64;94.65
71297;SHT31;59082;50.658;4.608;2023-03-21T16:11:41;13.61;95.54
71297;SHT31;59082;50.658;4.608;2023-03-21T16:14:07;13.47;95.91
71297;SHT31;59082;50.658;4.608;2023-03-21T16:16:34;13.33;96.35
71297;SHT31;59082;50.658;4.608;2023-03-21T16:19:01;13.28;96.77
71297;SHT31;59082;50.658;4.608;2023-03-21T16:21:29;13.12;97.35
71297;SHT31;59082;50.658;4.608;2023-03-21T16:23:56;12.91;98.09
71297;SHT31;59082;50.658;4.608;2023-03-21T16:26:25;12.79;98.41
71297;SHT31;59082;50.658;4.608;2023-03-21T16:28:52;12.75;99.99
71297;SHT31;59082;50.658;4.608;2023-03-21T16:31:23;12.64;99.99
71297;SHT31;59082;50.658;4.608;2023-03-21T16:33:49;12.40;99.99
71297;SHT31;59082;50.658;4.608;2023-03-21T16:36:30;12.41;99.99
71297;SHT31;59082;50.658;4.608;2023-03-21T16:38:57;12.48;99.99
71297;SHT31;59082;50.658;4.608;2023-03-21T16:41:25;12.51;99.99
71297;SHT31;59082;50.658;4.608;2023-03-21T16:43:51;12.69;99.99
71297;SHT31;59082;50.658;4.608;2023-03-21T16:46:24;12.61;99.99
71297;SHT31;59082;50.658;4.608;2023-03-21T16:48:52;12.37;99.99
71297;SHT31;59082;50.658;4.608;2023-03-21T16:51:22;12.17;99.99
71297;SHT31;59082;50.658;4.608;2023-03-21T16:53:51;12.02;99.99
71297;SHT31;59082;50.658;4.608;2023-03-21T16:56:24;11.95;99.99
71297;SHT31;59082;50.658;4.608;2023-03-21T16:58:52;12.06;99.99
71297;SHT31;59082;50.658;4.608;2023-03-21T17:01:20;12.12;99.99
71297;SHT31;59082;50.658;4.608;2023-03-21T17:03:50;12.09;99.99
71297;SHT31;59082;50.658;4.608;2023-03-21T17:06:19;12.23;99.99
71297;SHT31;59082;50.658;4.608;2023-03-21T17:08:45;12.23;99.99
71297;SHT31;59082;50.658;4.608;2023-03-21T17:11:13;12.12;99.99
71297;SHT31;59082;50.658;4.608;2023-03-21T17:13:50;12.02;99.99
71297;SHT31;59082;50.658;4.608;2023-03-21T17:16:19;11.76;99.99
71297;SHT31;59082;50.658;4.608;2023-03-21T17:18:47;11.72;99.99
71297;SHT31;59082;50.658;4.608;2023-03-21T17:23:42;11.37;99.99
71297;SHT31;59082;50.658;4.608;2023-03-21T17:26:08;11.17;99.99
71297;SHT31;59082;50.658;4.608;2023-03-21T17:28:38;11.18;99.99
71297;SHT31;59082;50.658;4.608;2023-03-21T17:31:15;11.17;99.99
71297;SHT31;59082;50.658;4.608;2023-03-21T17:33:43;11.16;99.99
71297;SHT31;59082;50.658;4.608;2023-03-21T17:36:13;11.13;99.99
71297;SHT31;59082;50.658;4.608;2023-03-21T17:38:40;10.97;99.99
71297;SHT31;59082;50.658;4.608;2023-03-21T17:41:09;10.99;99.99
71297;SHT31;59082;50.658;4.608;2023-03-21T17:43:35;10.96;99.99
71297;SHT31;59082;50.658;4.608;2023-03-21T17:46:01;10.95;99.99
71297;SHT31;59082;50.658;4.608;2023-03-21T17:48:27;10.89;99.99
71297;SHT31;59082;50.658;4.608;2023-03-21T17:50:53;10.89;99.99
71297;SHT31;59082;50.658;4.608;2023-03-21T17:53:19;10.92;99.99
71297;SHT31;59082;50.658;4.608;2023-03-21T17:55:46;10.89;99.99
71297;SHT31;59082;50.658;4.608;2023-03-21T17:58:12;10.89;99.99
71297;SHT31;59082;50.658;4.608;2023-03-21T18:00:38;10.83;99.99
71297;SHT31;59082;50.658;4.608;2023-03-21T18:03:03;10.66;99.99
71297;SHT31;59082;50.658;4.608;2023-03-21T18:05:29;10.61;99.99
71297;SHT31;59082;50.658;4.608;2023-03-21T18:07:55;10.46;99.99
71297;SHT31;59082;50.658;4.608;2023-03-21T18:10:25;10.21;99.99
71297;SHT31;59082;50.658;4.608;2023-03-21T18:12:51;10.15;99.99
71297;SHT31;59082;50.658;4.608;2023-03-21T18:15:21;9.94;99.99
71297;SHT31;59082;50.658;4.608;2023-03-21T18:17:47;9.82;99.99
71297;SHT31;59082;50.658;4.608;2023-03-21T18:20:15;9.82;99.99
71297;SHT31;59082;50.658;4.608;2023-03-21T18:22:42;9.98;99.99
71297;SHT31;59082;50.658;4.608;2023-03-21T18:25:09;10.00;99.99
71297;SHT31;59082;50.658;4.608;2023-03-21T18:27:35;9.98;99.99
71297;SHT31;59082;50.658;4.608;2023-03-21T18:30:03;10.10;99.99
71297;SHT31;59082;50.658;4.608;2023-03-21T18:32:29;10.18;99.99
71297;SHT31;59082;50.658;4.608;2023-03-21T18:34:54;10.25;99.99
71297;SHT31;59082;50.658;4.608;2023-03-21T18:37:24;10.34;99.99
71297;SHT31;59082;50.658;4.608;2023-03-21T18:39:49;10.44;99.99
71297;SHT31;59082;50.658;4.608;2023-03-21T18:42:17;10.51;99.99
71297;SHT31;59082;50.658;4.608;2023-03-21T18:44:43;10.53;99.99
71297;SHT31;59082;50.658;4.608;2023-03-21T18:47:12;10.62;99.99
71297;SHT31;59082;50.658;4.608;2023-03-21T18:49:38;10.66;99.99
71297;SHT31;59082;50.658;4.608;2023-03-21T18:52:04;10.69;99.99
71297;SHT31;59082;50.658;4.608;2023-03-21T18:54:31;10.72;99.99
71297;SHT31;59082;50.658;4.608;2023-03-21T18:56:57;10.77;99.99
71297;SHT31;59082;50.658;4.608;2023-03-21T18:59:22;10.76;99.99
71297;SHT31;59082;50.658;4.608;2023-03-21T19:01:48;10.80;99.99
71297;SHT31;59082;50.658;4.608;2023-03-21T19:04:15;10.84;99.99
71297;SHT31;59082;50.658;4.608;2023-03-21T19:06:41;10.92;99.99
71297;SHT31;59082;50.658;4.608;2023-03-21T19:09:07;11.00;99.99
71297;SHT31;59082;50.658;4.608;2023-03-21T19:11:33;11.08;99.99
71297;SHT31;59082;50.658;4.608;2023-03-21T19:14:00;11.10;99.99
71297;SHT31;59082;50.658;4.608;2023-03-21T19:16:26;11.13;99.99
71297;SHT31;59082;50.658;4.608;2023-03-21T19:18:52;11.14;99.99
71297;SHT31;59082;50.658;4.608;2023-03-21T19:21:18;11.17;99.99
71297;SHT31;59082;50.658;4.608;2023-03-21T19:23:44;11.21;99.99
71297;SHT31;59082;50.658;4.608;2023-03-21T19:26:10;11.20;99.99
71297;SHT31;59082;50.658;4.608;2023-03-21T19:28:36;11.18;99.99
71297;SHT31;59082;50.658;4.608;2023-03-21T19:31:04;11.18;99.99
71297;SHT31;59082;50.658;4.608;2023-03-21T19:33:30;11.28;99.99
71297;SHT31;59082;50.658;4.608;2023-03-21T19:35:56;11.27;99.99
71297;SHT31;59082;50.658;4.608;2023-03-21T19:38:22;11.24;99.99
71297;SHT31;59082;50.658;4.608;2023-03-21T19:40:47;11.23;99.99
71297;SHT31;59082;50.658;4.608;2023-03-21T19:43:13;11.20;99.99
71297;SHT31;59082;50.658;4.608;2023-03-21T19:45:45;11.20;99.99
71297;SHT31;59082;50.658;4.608;2023-03-21T19:48:11;11.16;99.99
71297;SHT31;59082;50.658;4.608;2023-03-21T19:50:37;11.11;99.99
71297;SHT31;59082;50.658;4.608;2023-03-21T19:53:02;11.07;99.99
71297;SHT31;59082;50.658;4.608;2023-03-21T19:55:28;11.10;99.99
71297;SHT31;59082;50.658;4.608;2023-03-21T19:57:53;11.11;99.99
71297;SHT31;59082;50.658;4.608;2023-03-21T20:00:20;11.13;99.99
71297;SHT31;59082;50.658;4.608;2023-03-21T20:02:46;11.17;99.99
71297;SHT31;59082;50.658;4.608;2023-03-21T20:05:13;11.21;99.99
71297;SHT31;59082;50.658;4.608;2023-03-21T20:07:40;11.24;99.99
71297;SHT31;59082;50.658;4.608;2023-03-21T20:10:06;11.24;99.99
71297;SHT31;59082;50.658;4.608;2023-03-21T20:12:33;11.41;99.99
71297;SHT31;59082;50.658;4.608;2023-03-21T20:14:59;11.42;99.99
71297;SHT31;59082;50.658;4.608;2023-03-21T20:17:25;11.50;99.99
71297;SHT31;59082;50.658;4.608;2023-03-21T20:19:52;11.48;99.99
71297;SHT31;59082;50.658;4.608;2023-03-21T20:22:25;11.57;99.99
71297;SHT31;59082;50.658;4.608;2023-03-21T20:24:51;11.58;99.99
71297;SHT31;59082;50.658;4.608;2023-03-21T20:27:17;11.59;99.99
71297;SHT31;59082;50.658;4.608;2023-03-21T20:29:50;11.59;99.99
71297;SHT31;59082;50.658;4.608;2023-03-21T20:32:17;11.58;99.99
71297;SHT31;59082;50.658;4.608;2023-03-21T20:34:42;11.64;99.99
71297;SHT31;59082;50.658;4.608;2023-03-21T20:37:09;11.58;99.99
71297;SHT31;59082;50.658;4.608;2023-03-21T20:39:35;11.54;99.99
71297;SHT31;59082;50.658;4.608;2023-03-21T20:42:01;11.47;99.99
71297;SHT31;59082;50.658;4.608;2023-03-21T20:44:27;11.44;99.99
71297;SHT31;59082;50.658;4.608;2023-03-21T20:46:53;11.41;99.99
71297;SHT31;59082;50.658;4.608;2023-03-21T20:49:18;11.34;99.99
71297;SHT31;59082;50.658;4.608;2023-03-21T20:51:47;11.28;99.99
71297;SHT31;59082;50.658;4.608;2023-03-21T20:54:13;11.27;99.99
71297;SHT31;59082;50.658;4.608;2023-03-21T20:56:40;11.28;99.99
71297;SHT31;59082;50.658;4.608;2023-03-21T20:59:06;11.24;99.99
71297;SHT31;59082;50.658;4.608;2023-03-21T21:01:32;11.23;99.99
71297;SHT31;59082;50.658;4.608;2023-03-21T21:03:58;11.30;99.99
71297;SHT31;59082;50.658;4.608;2023-03-21T21:06:25;11.32;99.99
71297;SHT31;59082;50.658;4.608;2023-03-21T21:08:52;11.28;99.99
71297;SHT31;59082;50.658;4.608;2023-03-21T21:11:21;11.24;99.99
71297;SHT31;59082;50.658;4.608;2023-03-21T21:13:47;11.24;99.99
71297;SHT31;59082;50.658;4.608;2023-03-21T21:16:13;11.13;99.99
71297;SHT31;59082;50.658;4.608;2023-03-21T21:18:39;10.96;99.99
71297;SHT31;59082;50.658;4.608;2023-03-21T21:21:06;10.90;99.99
71297;SHT31;59082;50.658;4.608;2023-03-21T21:23:34;10.81;99.99
71297;SHT31;59082;50.658;4.608;2023-03-21T21:26:00;10.84;99.99
71297;SHT31;59082;50.658;4.608;2023-03-21T21:28:26;10.81;99.99
71297;SHT31;59082;50.658;4.608;2023-03-21T21:31:07;10.84;99.99
71297;SHT31;59082;50.658;4.608;2023-03-21T21:33:35;10.93;99.99
71297;SHT31;59082;50.658;4.608;2023-03-21T21:36:04;10.88;99.99
71297;SHT31;59082;50.658;4.608;2023-03-21T21:38:31;10.90;99.99
71297;SHT31;59082;50.658;4.608;2023-03-21T21:40:59;10.95;99.99
71297;SHT31;59082;50.658;4.608;2023-03-21T21:43:25;10.92;99.99
71297;SHT31;59082;50.658;4.608;2023-03-21T21:45:51;10.90;99.99
71297;SHT31;59082;50.658;4.608;2023-03-21T21:48:17;10.90;99.99
71297;SHT31;59082;50.658;4.608;2023-03-21T21:50:43;10.86;99.99
71297;SHT31;59082;50.658;4.608;2023-03-21T21:53:12;10.83;99.99
71297;SHT31;59082;50.658;4.608;2023-03-21T21:55:38;10.83;99.99
71297;SHT31;59082;50.658;4.608;2023-03-21T21:58:04;10.77;99.99
71297;SHT31;59082;50.658;4.608;2023-03-21T22:00:33;10.63;99.99
71297;SHT31;59082;50.658;4.608;2023-03-21T22:03:00;10.52;99.99
71297;SHT31;59082;50.658;4.608;2023-03-21T22:05:27;10.34;99.99
71297;SHT31;59082;50.658;4.608;2023-03-21T22:07:54;10.11;99.99
71297;SHT31;59082;50.658;4.608;2023-03-21T22:10:22;10.05;99.99
71297;SHT31;59082;50.658;4.608;2023-03-21T22:12:48;10.18;99.99
71297;SHT31;59082;50.658;4.608;2023-03-21T22:15:15;10.27;99.99
71297;SHT31;59082;50.658;4.608;2023-03-21T22:17:44;10.37;99.99
71297;SHT31;59082;50.658;4.608;2023-03-21T22:20:12;10.41;99.99
71297;SHT31;59082;50.658;4.608;2023-03-21T22:22:39;10.42;99.99
71297;SHT31;59082;50.658;4.608;2023-03-21T22:25:07;10.45;99.99
71297;SHT31;59082;50.658;4.608;2023-03-21T22:27:33;10.45;99.99
71297;SHT31;59082;50.658;4.608;2023-03-21T22:29:58;10.41;99.99
71297;SHT31;59082;50.658;4.608;2023-03-21T22:32:30;10.28;99.99
71297;SHT31;59082;50.658;4.608;2023-03-21T22:34:56;10.08;99.99
71297;SHT31;59082;50.658;4.608;2023-03-21T22:37:23;10.00;99.99
71297;SHT31;59082;50.658;4.608;2023-03-21T22:39:48;10.00;99.99
71297;SHT31;59082;50.658;4.608;2023-03-21T22:42:14;10.07;99.99
71297;SHT31;59082;50.658;4.608;2023-03-21T22:44:40;10.11;99.99
71297;SHT31;59082;50.658;4.608;2023-03-21T22:47:08;10.17;99.99
71297;SHT31;59082;50.658;4.608;2023-03-21T22:49:34;10.27;99.99
71297;SHT31;59082;50.658;4.608;2023-03-21T22:52:00;10.37;99.99
71297;SHT31;59082;50.658;4.608;2023-03-21T22:54:28;10.42;99.99
71297;SHT31;59082;50.658;4.608;2023-03-21T22:56:54;10.46;99.99